Tampa, Florida
Traffic Map
Current Weather Conditions
Tampa, Florida
Scattered Clouds
Scattered Clouds
25°
Feels Like: 26°
Wind Chill: 25° Ceiling: Unl
Heat Index: 26° Visibility: 10mi
Dew Point: 21° Wind: 13mph
Humidity: 76% Direction: 190° (S)
Pressure: 29.89in Gusts: 0mph
Raw Report DataKTPA 232053Z 19011KT 10SM FEW030 SCT250 25/21 A2989 RMK AO2 SLP121 T02500206 55010
Traffic Incident Summary
Active as of:
Severity:
Category:
InformationThere was an issue retrieving the traffic information for this location. Please try a different location or try again shortly.
Advertisements
Track Severe Weather on mobile